CYAY

Saint Anthony  Airport

St. Anthony, Canada

CYAY 250100Z AUTO 28018G24KT 9SM OVC041 M04/M09 A2973 RMK ICG SLP070

Observed Flight Rules
Nov-25 @ 01:00 UTC (59 minutes ago)
 
Visual Flight Rules
Wind Visibility Clouds
280° at 18 knots
 Gusting to 24 knots
9 miles
  • Overcast at 4,100' AGL
Temperatures Readings
Current -4°C / 25°F
Dewpoint -9°C / 16°F
Humidity 69%
Altimeter 29.73" Hg
Pressure 1007 hPa
Elevation 28
Observed Flight Rules
Nov-25 @ 01:00 UTC
(59 minutes ago)
 
VFR
Wind Visibility
280° at 18 knots
 Gusting to 24 knots
9 miles
Clouds
  • Overcast at 4,100' AGL
Temperature Dewpoint
-4°C / 25°F -9°C / 16°F
Humidity Altimeter Pressure
69% 29.73" Hg 1007 hPa